createdAt,value
2023-04-11T00:01:03.810Z,10.10
2023-04-11T00:03:34.069Z,10.08
2023-04-11T00:06:02.568Z,10.04
2023-04-11T00:08:33.063Z,10.02
2023-04-11T00:11:03.053Z,9.98
2023-04-11T00:13:31.321Z,9.97
2023-04-11T00:16:05.818Z,9.95
2023-04-11T00:18:38.051Z,9.93
2023-04-11T00:21:08.205Z,9.90
2023-04-11T00:23:38.097Z,9.88
2023-04-11T00:26:07.011Z,9.86
2023-04-11T00:28:43.016Z,9.82
2023-04-11T00:31:12.628Z,9.77
2023-04-11T00:33:42.609Z,9.72
2023-04-11T00:36:11.309Z,9.70
2023-04-11T00:38:40.402Z,9.68
2023-04-11T00:41:11.031Z,9.67
2023-04-11T00:43:49.963Z,9.65
2023-04-11T00:46:19.000Z,9.61
2023-04-11T00:48:48.071Z,9.56
2023-04-11T00:51:24.174Z,9.51
2023-04-11T00:53:53.437Z,9.47
2023-04-11T00:56:22.396Z,9.44
2023-04-11T00:58:51.031Z,9.43
2023-04-11T01:01:20.391Z,9.45
2023-04-11T01:03:49.167Z,9.43
2023-04-11T01:06:20.098Z,9.42
2023-04-11T01:08:49.335Z,9.38
2023-04-11T01:11:20.640Z,9.32
2023-04-11T01:13:49.731Z,9.29
2023-04-11T01:16:21.789Z,9.26
2023-04-11T01:18:50.942Z,9.23
2023-04-11T01:21:20.407Z,9.21
2023-04-11T01:23:49.125Z,9.19
2023-04-11T01:26:17.585Z,9.20
2023-04-11T01:28:46.781Z,9.18
2023-04-11T01:31:16.486Z,9.21
2023-04-11T01:33:45.638Z,9.15
2023-04-11T01:36:13.836Z,9.12
2023-04-11T01:38:44.442Z,9.10
2023-04-11T01:41:12.777Z,9.06
2023-04-11T01:43:44.879Z,9.06
2023-04-11T01:46:13.681Z,9.05
2023-04-11T01:48:42.868Z,9.03
2023-04-11T01:51:12.378Z,8.99
2023-04-11T01:53:40.636Z,9.03
2023-04-11T01:56:09.824Z,9.02
2023-04-11T01:58:38.391Z,8.96
2023-04-11T02:01:14.663Z,8.92
2023-04-11T02:03:47.426Z,8.88
2023-04-11T02:06:20.317Z,8.84
2023-04-11T02:08:54.233Z,8.82
2023-04-11T02:11:25.559Z,8.80
2023-04-11T02:13:54.081Z,8.78
2023-04-11T02:16:26.037Z,8.75
2023-04-11T02:18:55.322Z,8.72
2023-04-11T02:21:23.893Z,8.71
2023-04-11T02:23:55.265Z,8.74
2023-04-11T02:26:27.173Z,8.72
2023-04-11T02:28:57.534Z,8.69
2023-04-11T02:31:28.909Z,8.66
2023-04-11T02:33:57.769Z,8.64
2023-04-11T02:36:28.781Z,8.63
2023-04-11T02:38:57.203Z,8.61
2023-04-11T02:41:27.845Z,8.58
2023-04-11T02:44:02.921Z,8.56
2023-04-11T02:46:32.287Z,8.54
2023-04-11T02:49:00.941Z,8.52
2023-04-11T02:51:29.947Z,8.50
2023-04-11T02:53:58.868Z,8.48
2023-04-11T02:56:39.544Z,8.46
2023-04-11T02:59:11.235Z,8.43
2023-04-11T03:01:48.025Z,8.40
2023-04-11T03:04:56.831Z,8.37
2023-04-11T03:07:25.293Z,8.34
2023-04-11T03:09:59.615Z,8.32
2023-04-11T03:12:28.476Z,8.31
2023-04-11T03:14:59.230Z,8.31
2023-04-11T03:17:30.679Z,8.30
2023-04-11T03:19:59.331Z,8.30
2023-04-11T03:22:29.014Z,8.28
2023-04-11T03:24:57.409Z,8.27
2023-04-11T03:27:27.350Z,8.26
2023-04-11T03:29:58.802Z,8.27
2023-04-11T03:32:33.752Z,8.27
2023-04-11T03:35:02.432Z,8.28
2023-04-11T03:37:31.432Z,8.30
2023-04-11T03:39:59.754Z,8.34
2023-04-11T03:42:28.009Z,8.37
2023-04-11T03:44:58.861Z,8.40
2023-04-11T03:47:27.457Z,8.42
2023-04-11T03:49:57.576Z,8.46
2023-04-11T03:52:26.145Z,8.50
2023-04-11T03:54:54.668Z,8.54
2023-04-11T03:57:23.542Z,8.58
2023-04-11T03:59:52.975Z,8.63
2023-04-11T04:02:21.733Z,8.71
2023-04-11T04:04:58.922Z,8.79
2023-04-11T04:07:38.222Z,8.85
2023-04-11T04:10:16.078Z,8.91
2023-04-11T04:12:45.421Z,8.99
2023-04-11T04:15:26.457Z,9.07
2023-04-11T04:17:55.543Z,9.13
2023-04-11T04:20:37.859Z,9.26
2023-04-11T04:23:07.982Z,9.35
2023-04-11T04:25:50.450Z,9.44
2023-04-11T04:28:26.304Z,9.51
2023-04-11T04:30:58.257Z,9.54
2023-04-11T04:33:33.291Z,9.63
2023-04-11T04:36:05.054Z,9.72
2023-04-11T04:38:39.014Z,9.81
2023-04-11T04:41:16.489Z,9.90
2023-04-11T04:43:55.350Z,9.97
2023-04-11T04:46:39.299Z,10.11
2023-04-11T04:49:08.144Z,10.20
2023-04-11T04:51:40.291Z,10.27
2023-04-11T04:54:10.034Z,10.40
2023-04-11T04:56:40.254Z,10.47
2023-04-11T04:59:18.402Z,10.55
2023-04-11T05:01:52.131Z,10.64
2023-04-11T05:04:26.502Z,10.72
2023-04-11T05:06:57.058Z,10.80
2023-04-11T05:09:28.994Z,10.88
2023-04-11T05:12:07.289Z,10.96
2023-04-11T05:14:37.623Z,11.02
2023-04-11T05:17:11.231Z,11.06
2023-04-11T05:19:41.547Z,11.17
2023-04-11T05:22:11.361Z,11.28
2023-04-11T05:24:46.635Z,11.35
2023-04-11T05:27:15.188Z,11.41
2023-04-11T05:29:44.369Z,11.47
2023-04-11T05:32:16.215Z,11.54
2023-04-11T05:34:58.172Z,11.53
2023-04-11T05:37:44.988Z,11.58
2023-04-11T05:40:14.555Z,11.63
2023-04-11T05:42:43.542Z,11.71
2023-04-11T05:45:12.759Z,11.80
2023-04-11T05:47:42.477Z,11.91
2023-04-11T05:50:11.161Z,12.01
2023-04-11T05:52:39.707Z,12.09
2023-04-11T05:55:09.917Z,12.16
2023-04-11T05:57:41.561Z,12.16
2023-04-11T06:00:17.955Z,12.21
2023-04-11T06:03:08.293Z,12.31
2023-04-11T06:05:38.263Z,12.43
2023-04-11T06:08:08.909Z,12.55
2023-04-11T06:10:38.963Z,12.70
2023-04-11T06:13:10.492Z,12.79
2023-04-11T06:15:41.234Z,12.87
2023-04-11T06:18:10.193Z,12.99
2023-04-11T06:20:47.297Z,13.10
2023-04-11T06:23:15.720Z,13.17
2023-04-11T06:25:44.175Z,13.27
2023-04-11T06:28:15.142Z,13.34
2023-04-11T06:30:43.790Z,13.41
2023-04-11T06:33:13.512Z,13.48
2023-04-11T06:35:45.976Z,13.54
2023-04-11T06:38:16.103Z,13.62
2023-04-11T06:40:45.074Z,13.70
2023-04-11T06:43:14.089Z,13.71
2023-04-11T06:45:43.685Z,13.75
2023-04-11T06:48:13.075Z,13.80
2023-04-11T06:50:41.980Z,13.89
2023-04-11T06:53:11.653Z,13.98
2023-04-11T06:55:40.905Z,14.04
2023-04-11T06:58:10.125Z,14.12
2023-04-11T07:00:40.133Z,14.19
2023-04-11T07:03:10.329Z,14.26
2023-04-11T07:05:41.684Z,14.37
2023-04-11T07:08:14.984Z,14.43
2023-04-11T07:10:45.024Z,14.45
2023-04-11T07:13:13.297Z,14.47
2023-04-11T07:15:43.493Z,14.50
2023-04-11T07:18:13.238Z,14.54
2023-04-11T07:20:41.529Z,14.57
2023-04-11T07:23:16.400Z,14.57
2023-04-11T07:25:45.427Z,14.61
2023-04-11T07:28:14.973Z,14.61
2023-04-11T07:30:43.236Z,14.62
2023-04-11T07:33:11.944Z,14.66
2023-04-11T07:35:41.027Z,14.69
2023-04-11T07:38:10.394Z,14.70
2023-04-11T07:40:39.715Z,14.73
2023-04-11T07:43:09.335Z,14.74
2023-04-11T07:45:39.588Z,14.74
2023-04-11T07:48:14.783Z,14.78
2023-04-11T07:50:45.500Z,14.76
2023-04-11T07:53:22.507Z,14.74
2023-04-11T07:55:50.809Z,14.73
2023-04-11T07:58:19.041Z,14.76
2023-04-11T08:00:47.958Z,14.80
2023-04-11T08:03:17.788Z,14.86
2023-04-11T08:05:46.292Z,14.93
2023-04-11T08:08:17.477Z,15.08
2023-04-11T08:10:46.040Z,15.21
2023-04-11T08:13:15.891Z,15.28
2023-04-11T08:15:47.766Z,15.33
2023-04-11T08:18:21.727Z,15.41
2023-04-11T08:20:50.125Z,15.49
2023-04-11T08:23:20.057Z,15.53
2023-04-11T08:25:48.943Z,15.56
2023-04-11T08:28:17.177Z,15.62
2023-04-11T08:30:46.888Z,15.72
2023-04-11T08:33:15.986Z,15.82
2023-04-11T08:35:51.146Z,15.92
2023-04-11T08:38:21.137Z,16.03
2023-04-11T08:40:51.230Z,16.18
2023-04-11T08:43:20.841Z,16.37
2023-04-11T08:45:49.148Z,16.56
2023-04-11T08:48:19.647Z,16.70
2023-04-11T08:50:48.458Z,16.86
2023-04-11T08:53:25.152Z,16.98
2023-04-11T08:55:56.133Z,17.06
2023-04-11T08:58:24.367Z,17.11
2023-04-11T09:00:53.668Z,17.09
2023-04-11T09:03:22.154Z,17.09
2023-04-11T09:05:51.558Z,17.12
2023-04-11T09:08:22.091Z,17.26
2023-04-11T09:10:50.462Z,17.41
2023-04-11T09:13:26.234Z,17.52
2023-04-11T09:16:14.825Z,17.63
2023-04-11T09:18:47.057Z,17.71
2023-04-11T09:21:31.069Z,17.74
2023-04-11T09:24:15.598Z,17.81
2023-04-11T09:26:44.052Z,17.90
2023-04-11T09:29:12.341Z,18.05
2023-04-11T09:31:46.964Z,18.25
2023-04-11T09:34:21.832Z,18.36
2023-04-11T09:36:55.290Z,18.35
2023-04-11T09:39:25.005Z,18.33
2023-04-11T09:41:54.650Z,18.35
2023-04-11T09:44:38.669Z,18.37
2023-04-11T09:47:07.026Z,18.35
2023-04-11T09:49:36.337Z,18.30
2023-04-11T09:52:05.765Z,18.33
2023-04-11T09:54:34.747Z,18.29
2023-04-11T09:57:05.404Z,18.25
2023-04-11T09:59:34.450Z,18.25
2023-04-11T10:02:03.777Z,18.28
2023-04-11T10:04:32.831Z,18.23
2023-04-11T10:07:21.357Z,18.21
2023-04-11T10:09:50.637Z,18.26
2023-04-11T10:12:33.349Z,18.35
2023-04-11T10:15:12.155Z,18.47
2023-04-11T10:17:41.644Z,18.59
2023-04-11T10:20:40.633Z,18.72
2023-04-11T10:23:08.937Z,18.87
2023-04-11T10:25:58.029Z,18.98
2023-04-11T10:28:33.649Z,19.03
2023-04-11T10:31:13.451Z,19.01
2023-04-11T10:33:42.205Z,18.96
2023-04-11T10:36:13.711Z,19.02
2023-04-11T10:38:49.272Z,19.16
2023-04-11T10:41:34.247Z,19.21
2023-04-11T10:44:23.438Z,19.24
2023-04-11T10:46:54.230Z,19.28
2023-04-11T10:49:35.018Z,19.31
2023-04-11T10:52:22.055Z,19.35
2023-04-11T10:54:52.069Z,19.40
2023-04-11T10:57:28.858Z,19.41
2023-04-11T10:59:58.541Z,19.49
2023-04-11T11:02:27.625Z,19.65
2023-04-11T11:04:56.001Z,19.79
2023-04-11T11:07:24.599Z,19.87
2023-04-11T11:09:55.680Z,19.86
2023-04-11T11:12:23.860Z,19.80
2023-04-11T11:14:52.037Z,19.81
2023-04-11T11:17:20.315Z,19.85
2023-04-11T11:19:49.544Z,19.89
2023-04-11T11:22:18.869Z,19.90
2023-04-11T11:24:47.130Z,19.86
2023-04-11T11:27:24.256Z,19.83
2023-04-11T11:29:53.537Z,19.87
2023-04-11T11:32:25.303Z,19.92
2023-04-11T11:34:54.262Z,19.95
2023-04-11T11:37:23.366Z,19.89
2023-04-11T11:39:52.089Z,19.81
2023-04-11T11:42:21.236Z,19.80
2023-04-11T11:44:49.737Z,19.88
2023-04-11T11:47:23.904Z,19.97
2023-04-11T11:49:56.951Z,19.92
2023-04-11T11:52:35.378Z,19.84
2023-04-11T11:55:11.346Z,19.75
2023-04-11T11:57:48.326Z,19.66
2023-04-11T12:00:24.301Z,19.53
2023-04-11T12:02:57.194Z,19.40
2023-04-11T12:05:30.323Z,19.34
2023-04-11T12:08:00.598Z,19.30
2023-04-11T12:10:37.816Z,19.33
2023-04-11T12:13:22.528Z,19.38
2023-04-11T12:16:01.684Z,19.49
2023-04-11T12:18:33.280Z,19.60
2023-04-11T12:21:02.511Z,19.69
2023-04-11T12:23:30.871Z,19.71
2023-04-11T12:26:00.244Z,19.73
2023-04-11T12:28:30.790Z,19.79
2023-04-11T12:30:59.140Z,19.86
2023-04-11T12:33:29.958Z,19.89
2023-04-11T12:35:58.365Z,19.91
2023-04-11T12:38:34.984Z,19.88
2023-04-11T12:41:29.552Z,19.84
2023-04-11T12:43:51.696Z,19.80
2023-04-11T12:46:20.853Z,19.73
2023-04-11T12:48:49.342Z,19.68
2023-04-11T12:51:17.950Z,19.67
2023-04-11T12:53:46.154Z,19.65
2023-04-11T12:56:14.346Z,19.72
2023-04-11T12:58:45.190Z,19.80
2023-04-11T13:01:13.693Z,19.90
2023-04-11T13:03:42.988Z,19.99
2023-04-11T13:06:13.088Z,19.96
2023-04-11T13:08:42.866Z,19.92
2023-04-11T13:11:11.100Z,19.86
2023-04-11T13:13:40.955Z,19.90
2023-04-11T13:16:11.745Z,19.99
2023-04-11T13:18:39.958Z,20.07
2023-04-11T13:21:09.049Z,20.09
2023-04-11T13:23:37.570Z,20.13
2023-04-11T13:26:07.953Z,20.09
2023-04-11T13:28:39.175Z,19.96
2023-04-11T13:31:13.442Z,19.80
2023-04-11T13:33:42.646Z,19.66
2023-04-11T13:36:11.392Z,19.58
2023-04-11T13:38:42.779Z,19.54
2023-04-11T13:41:14.982Z,19.52
2023-04-11T13:43:43.653Z,19.44
2023-04-11T13:46:12.707Z,19.46
2023-04-11T13:48:41.263Z,19.47
2023-04-11T13:51:10.265Z,19.46
2023-04-11T13:53:38.648Z,19.38
2023-04-11T13:56:09.102Z,19.32
2023-04-11T13:58:38.531Z,19.33
2023-04-11T14:01:07.024Z,19.29
2023-04-11T14:03:38.035Z,19.22
2023-04-11T14:06:09.506Z,19.24
2023-04-11T14:08:48.143Z,19.19
2023-04-11T14:11:18.080Z,19.09
2023-04-11T14:13:51.465Z,19.01
2023-04-11T14:16:19.998Z,18.93
2023-04-11T14:18:48.418Z,18.86
2023-04-11T14:21:17.440Z,18.75
2023-04-11T14:23:46.657Z,18.65
2023-04-11T14:26:20.232Z,18.56
2023-04-11T14:28:49.030Z,18.51
2023-04-11T14:31:17.346Z,18.49
2023-04-11T14:33:46.909Z,18.45
2023-04-11T14:36:15.198Z,18.45
2023-04-11T14:38:43.482Z,18.48
2023-04-11T14:41:11.748Z,18.59
2023-04-11T14:43:39.984Z,18.69
2023-04-11T14:46:10.510Z,18.75
2023-04-11T14:48:39.361Z,18.76
2023-04-11T14:51:07.956Z,18.73
2023-04-11T14:53:37.152Z,18.65
2023-04-11T14:56:06.647Z,18.57
2023-04-11T14:58:36.717Z,18.48
2023-04-11T15:01:05.364Z,18.39
2023-04-11T15:03:34.956Z,18.29
2023-04-11T15:06:11.467Z,18.17
2023-04-11T15:08:41.926Z,18.08
2023-04-11T15:11:10.282Z,17.91
2023-04-11T15:13:48.553Z,17.78
2023-04-11T15:16:22.422Z,17.67
2023-04-11T15:18:59.770Z,17.55
2023-04-11T15:21:38.604Z,17.46
2023-04-11T15:24:07.831Z,17.40
2023-04-11T15:26:36.680Z,17.35
2023-04-11T15:29:05.278Z,17.33
2023-04-11T15:31:33.749Z,17.23
2023-04-11T15:34:04.274Z,17.17
2023-04-11T15:36:39.748Z,17.12
2023-04-11T15:39:09.519Z,17.07
2023-04-11T15:41:40.012Z,17.03
2023-04-11T15:44:12.219Z,17.03
2023-04-11T15:46:42.771Z,16.99
2023-04-11T15:49:17.116Z,16.95
2023-04-11T15:51:46.809Z,16.92
2023-04-11T15:54:16.209Z,16.85
2023-04-11T15:56:45.488Z,16.84
2023-04-11T15:59:16.223Z,16.83
2023-04-11T16:01:46.529Z,16.74
2023-04-11T16:04:16.552Z,16.68
2023-04-11T16:06:45.119Z,16.66
2023-04-11T16:09:13.463Z,16.62
2023-04-11T16:11:44.027Z,16.60
2023-04-11T16:14:13.288Z,16.59
2023-04-11T16:16:46.834Z,16.54
2023-04-11T16:19:16.654Z,16.54
2023-04-11T16:21:45.020Z,16.50
2023-04-11T16:24:14.464Z,16.46
2023-04-11T16:26:43.607Z,16.43
2023-04-11T16:29:11.838Z,16.39
2023-04-11T16:31:41.439Z,16.36
2023-04-11T16:34:09.803Z,16.32
2023-04-11T16:36:37.997Z,16.30
2023-04-11T16:39:06.666Z,16.25
2023-04-11T16:41:38.421Z,16.21
2023-04-11T16:44:18.719Z,16.17
2023-04-11T16:47:11.455Z,16.16
2023-04-11T16:50:10.671Z,16.14
2023-04-11T16:52:49.474Z,16.11
2023-04-11T16:55:21.220Z,16.13
2023-04-11T16:57:49.453Z,16.13
2023-04-11T17:00:20.671Z,16.13
2023-04-11T17:02:59.070Z,16.10
2023-04-11T17:05:27.656Z,16.09
2023-04-11T17:07:56.109Z,16.09
2023-04-11T17:10:24.769Z,16.06
2023-04-11T17:12:54.711Z,16.03
2023-04-11T17:15:23.165Z,15.99
2023-04-11T17:17:51.966Z,15.96
2023-04-11T17:20:41.386Z,15.93
2023-04-11T17:23:43.310Z,15.90
2023-04-11T17:29:59.863Z,15.84
2023-04-11T17:32:51.147Z,15.77
2023-04-11T17:35:20.284Z,15.74
2023-04-11T17:37:50.726Z,15.70
2023-04-11T17:40:19.390Z,15.65
2023-04-11T17:42:48.469Z,15.62
2023-04-11T17:45:18.617Z,15.61
2023-04-11T17:47:48.076Z,15.55
2023-04-11T17:50:16.509Z,15.50
2023-04-11T17:52:45.477Z,15.46
2023-04-11T17:55:17.914Z,15.42
2023-04-11T17:57:49.787Z,15.38
2023-04-11T18:00:24.746Z,15.36
2023-04-11T18:02:55.109Z,15.36
2023-04-11T18:05:26.648Z,15.37
2023-04-11T18:07:59.051Z,15.39
2023-04-11T18:10:28.157Z,15.38
2023-04-11T18:12:57.719Z,15.36
2023-04-11T18:15:28.270Z,15.36
2023-04-11T18:17:57.783Z,15.32
2023-04-11T18:20:26.441Z,15.28
2023-04-11T18:22:58.078Z,15.27
2023-04-11T18:25:27.312Z,15.24
2023-04-11T18:27:55.840Z,15.22
2023-04-11T18:30:24.174Z,15.19
2023-04-11T18:33:05.207Z,15.18
2023-04-11T18:35:33.704Z,15.18
2023-04-11T18:38:13.707Z,15.19
2023-04-11T18:40:41.870Z,15.19
2023-04-11T18:43:10.886Z,15.18
2023-04-11T18:45:41.509Z,15.16
2023-04-11T18:48:10.574Z,15.17
2023-04-11T18:50:43.173Z,15.18
2023-04-11T18:53:13.910Z,15.16
2023-04-11T18:55:49.778Z,15.10
2023-04-11T18:58:23.755Z,15.04
2023-04-11T19:00:56.853Z,15.01
2023-04-11T19:03:26.918Z,15.00
2023-04-11T19:05:55.873Z,14.98
2023-04-11T19:08:34.668Z,14.98
2023-04-11T19:11:08.599Z,14.97
2023-04-11T19:13:43.296Z,14.99
2023-04-11T19:16:16.235Z,14.91
2023-04-11T19:18:55.509Z,14.87
2023-04-11T19:21:28.264Z,14.88
2023-04-11T19:24:10.290Z,14.85
2023-04-11T19:26:40.441Z,14.83
2023-04-11T19:29:11.086Z,14.82
2023-04-11T19:31:40.581Z,14.81
2023-04-11T19:34:15.586Z,14.81
2023-04-11T19:36:45.363Z,14.79
2023-04-11T19:39:16.581Z,14.76
2023-04-11T19:41:51.535Z,14.73
2023-04-11T19:44:37.865Z,14.70
2023-04-11T19:47:06.404Z,14.66
2023-04-11T19:49:35.823Z,14.61
2023-04-11T19:52:08.973Z,14.55
2023-04-11T19:54:51.623Z,14.53
2023-04-11T19:57:34.513Z,14.52
2023-04-11T20:00:17.552Z,14.51
2023-04-11T20:02:49.052Z,14.52
2023-04-11T20:05:19.213Z,14.53
2023-04-11T20:07:48.087Z,14.53
2023-04-11T20:10:21.671Z,14.57
2023-04-11T20:12:52.690Z,14.63
2023-04-11T20:15:21.107Z,14.68
2023-04-11T20:17:49.817Z,14.71
2023-04-11T20:20:20.296Z,14.73
2023-04-11T20:22:49.926Z,14.72
2023-04-11T20:25:18.233Z,14.73
2023-04-11T20:27:46.868Z,14.72
2023-04-11T20:30:17.474Z,14.72
2023-04-11T20:32:47.239Z,14.70
2023-04-11T20:35:15.768Z,14.67
2023-04-11T20:37:49.197Z,14.60
2023-04-11T20:40:19.344Z,14.52
2023-04-11T20:42:49.833Z,14.46
2023-04-11T20:45:21.943Z,14.37
2023-04-11T20:47:54.419Z,14.25
2023-04-11T20:50:40.360Z,14.14
2023-04-11T20:53:10.597Z,14.02
2023-04-11T20:55:43.443Z,13.90
2023-04-11T20:58:17.391Z,13.77
2023-04-11T21:00:46.116Z,13.65
2023-04-11T21:03:16.743Z,13.57
2023-04-11T21:05:46.884Z,13.55
2023-04-11T21:08:15.722Z,13.49
2023-04-11T21:10:44.221Z,13.43
2023-04-11T21:13:16.690Z,13.39
2023-04-11T21:15:46.606Z,13.39
2023-04-11T21:18:16.125Z,13.38
2023-04-11T21:20:44.400Z,13.37
2023-04-11T21:23:12.729Z,13.37
2023-04-11T21:25:42.347Z,13.37
2023-04-11T21:28:10.971Z,13.35
2023-04-11T21:30:39.913Z,13.32
2023-04-11T21:33:11.080Z,13.32
2023-04-11T21:35:39.530Z,13.31
2023-04-11T21:38:08.689Z,13.30
2023-04-11T21:40:40.440Z,13.29
2023-04-11T21:43:10.987Z,13.30
2023-04-11T21:45:44.756Z,13.27
2023-04-11T21:48:18.825Z,13.26
2023-04-11T21:50:48.814Z,13.26
2023-04-11T21:53:18.537Z,13.27
2023-04-11T21:55:47.041Z,13.27
2023-04-11T21:58:28.966Z,13.27
2023-04-11T22:00:59.770Z,13.26
2023-04-11T22:03:31.386Z,13.28
2023-04-11T22:06:00.532Z,13.31
2023-04-11T22:08:31.348Z,13.30
2023-04-11T22:11:00.428Z,13.26
2023-04-11T22:13:32.332Z,13.24
2023-04-11T22:16:06.331Z,13.21
2023-04-11T22:18:47.622Z,13.20
2023-04-11T22:21:21.217Z,13.14
2023-04-11T22:23:59.152Z,13.08
2023-04-11T22:26:34.236Z,13.03
2023-04-11T22:29:05.881Z,12.97
2023-04-11T22:31:41.928Z,12.90
2023-04-11T22:34:13.670Z,12.86
2023-04-11T22:36:55.301Z,12.81
2023-04-11T22:39:54.647Z,12.59
2023-04-11T22:42:27.057Z,12.61
2023-04-11T22:45:01.470Z,12.63
2023-04-11T22:47:34.956Z,12.60
2023-04-11T22:50:12.683Z,12.56
2023-04-11T22:52:42.870Z,12.49
2023-04-11T22:55:21.449Z,12.45
2023-04-11T22:58:02.201Z,12.44
2023-04-11T23:00:47.687Z,12.42
2023-04-11T23:03:18.323Z,12.55
2023-04-11T23:05:46.887Z,12.58
2023-04-11T23:08:19.127Z,12.60
2023-04-11T23:10:47.731Z,12.60
2023-04-11T23:13:17.689Z,12.59
2023-04-11T23:15:50.777Z,12.59
2023-04-11T23:18:19.678Z,12.59
2023-04-11T23:20:49.121Z,12.59
2023-04-11T23:23:25.262Z,12.49
2023-04-11T23:25:54.525Z,12.37
2023-04-11T23:28:25.450Z,12.40
2023-04-11T23:30:56.702Z,12.47
2023-04-11T23:33:46.543Z,12.53
2023-04-11T23:36:37.264Z,12.53
2023-04-11T23:39:08.637Z,12.54
2023-04-11T23:41:39.006Z,12.54
2023-04-11T23:44:10.681Z,12.55
2023-04-11T23:46:43.391Z,12.45
2023-04-11T23:49:13.424Z,12.40
2023-04-11T23:51:42.710Z,12.48
2023-04-11T23:54:12.982Z,12.47
2023-04-11T23:56:43.873Z,12.42
2023-04-11T23:59:12.486Z,12.38
